sensor_id;sensor_type;location;lat;lon;timestamp;P1;durP1;ratioP1;P2;durP2;ratioP2
73315;SDS011;61545;53.726;-0.444;2023-11-21T00:01:36;2.8;;;0.7;;
73315;SDS011;61545;53.726;-0.444;2023-11-21T00:06:36;2.5;;;0.7;;
73315;SDS011;61545;53.726;-0.444;2023-11-21T00:11:36;0.9;;;0.4;;
73315;SDS011;61545;53.726;-0.444;2023-11-21T00:16:36;1.6;;;0.6;;
73315;SDS011;61545;53.726;-0.444;2023-11-21T00:21:36;1.7;;;0.5;;
73315;SDS011;61545;53.726;-0.444;2023-11-21T00:26:36;2.3;;;0.5;;
73315;SDS011;61545;53.726;-0.444;2023-11-21T00:31:36;2.3;;;0.5;;
73315;SDS011;61545;53.726;-0.444;2023-11-21T00:36:36;2.4;;;0.7;;
73315;SDS011;61545;53.726;-0.444;2023-11-21T00:41:36;2.9;;;0.7;;
73315;SDS011;61545;53.726;-0.444;2023-11-21T00:46:38;7.7;;;0.6;;
73315;SDS011;61545;53.726;-0.444;2023-11-21T00:51:36;1.3;;;0.4;;
73315;SDS011;61545;53.726;-0.444;2023-11-21T00:56:36;1.9;;;0.7;;
73315;SDS011;61545;53.726;-0.444;2023-11-21T01:01:36;1.9;;;0.7;;
73315;SDS011;61545;53.726;-0.444;2023-11-21T01:06:36;2.9;;;0.7;;
73315;SDS011;61545;53.726;-0.444;2023-11-21T01:11:36;2.3;;;0.5;;
73315;SDS011;61545;53.726;-0.444;2023-11-21T01:16:36;1.9;;;0.5;;
73315;SDS011;61545;53.726;-0.444;2023-11-21T01:21:36;5.0;;;0.6;;
73315;SDS011;61545;53.726;-0.444;2023-11-21T01:26:36;3.4;;;0.7;;
73315;SDS011;61545;53.726;-0.444;2023-11-21T01:31:36;3.4;;;0.7;;
73315;SDS011;61545;53.726;-0.444;2023-11-21T01:36:36;3.0;;;0.7;;
73315;SDS011;61545;53.726;-0.444;2023-11-21T01:41:36;9.7;;;1.6;;
73315;SDS011;61545;53.726;-0.444;2023-11-21T01:46:36;4.6;;;0.8;;
73315;SDS011;61545;53.726;-0.444;2023-11-21T01:51:36;4.2;;;0.8;;
73315;SDS011;61545;53.726;-0.444;2023-11-21T01:56:36;2.5;;;0.6;;
73315;SDS011;61545;53.726;-0.444;2023-11-21T02:01:36;2.5;;;0.6;;
73315;SDS011;61545;53.726;-0.444;2023-11-21T02:06:36;1.4;;;0.6;;
73315;SDS011;61545;53.726;-0.444;2023-11-21T02:11:36;4.0;;;0.5;;
73315;SDS011;61545;53.726;-0.444;2023-11-21T02:16:36;3.9;;;0.4;;
73315;SDS011;61545;53.726;-0.444;2023-11-21T02:21:36;2.3;;;0.6;;
73315;SDS011;61545;53.726;-0.444;2023-11-21T02:26:36;3.6;;;0.6;;
73315;SDS011;61545;53.726;-0.444;2023-11-21T02:31:37;3.6;;;0.6;;
73315;SDS011;61545;53.726;-0.444;2023-11-21T02:36:36;3.6;;;0.7;;
73315;SDS011;61545;53.726;-0.444;2023-11-21T02:41:37;2.4;;;0.7;;
73315;SDS011;61545;53.726;-0.444;2023-11-21T02:46:37;1.1;;;0.5;;
73315;SDS011;61545;53.726;-0.444;2023-11-21T02:51:36;2.1;;;0.4;;
73315;SDS011;61545;53.726;-0.444;2023-11-21T02:56:36;2.1;;;0.5;;
73315;SDS011;61545;53.726;-0.444;2023-11-21T03:01:36;2.1;;;0.5;;
73315;SDS011;61545;53.726;-0.444;2023-11-21T03:06:36;1.8;;;0.4;;
73315;SDS011;61545;53.726;-0.444;2023-11-21T03:11:36;4.2;;;0.5;;
73315;SDS011;61545;53.726;-0.444;2023-11-21T03:16:36;1.4;;;0.4;;
73315;SDS011;61545;53.726;-0.444;2023-11-21T03:21:36;2.6;;;0.4;;
73315;SDS011;61545;53.726;-0.444;2023-11-21T03:26:36;1.4;;;0.3;;
73315;SDS011;61545;53.726;-0.444;2023-11-21T03:31:36;1.4;;;0.3;;
73315;SDS011;61545;53.726;-0.444;2023-11-21T03:36:36;1.5;;;0.5;;
73315;SDS011;61545;53.726;-0.444;2023-11-21T03:41:37;0.8;;;0.4;;
73315;SDS011;61545;53.726;-0.444;2023-11-21T03:46:36;1.0;;;0.4;;
73315;SDS011;61545;53.726;-0.444;2023-11-21T03:51:36;1.4;;;0.3;;
73315;SDS011;61545;53.726;-0.444;2023-11-21T03:56:36;1.2;;;0.3;;
73315;SDS011;61545;53.726;-0.444;2023-11-21T04:01:36;1.2;;;0.3;;
73315;SDS011;61545;53.726;-0.444;2023-11-21T04:06:36;0.9;;;0.3;;
73315;SDS011;61545;53.726;-0.444;2023-11-21T04:11:36;0.7;;;0.3;;
73315;SDS011;61545;53.726;-0.444;2023-11-21T04:16:36;1.6;;;0.6;;
73315;SDS011;61545;53.726;-0.444;2023-11-21T04:21:37;2.0;;;0.5;;
73315;SDS011;61545;53.726;-0.444;2023-11-21T04:26:36;0.7;;;0.3;;
73315;SDS011;61545;53.726;-0.444;2023-11-21T04:31:36;0.7;;;0.3;;
73315;SDS011;61545;53.726;-0.444;2023-11-21T04:36:36;1.3;;;0.3;;
73315;SDS011;61545;53.726;-0.444;2023-11-21T04:41:36;1.7;;;0.4;;
73315;SDS011;61545;53.726;-0.444;2023-11-21T04:46:36;1.4;;;0.3;;
73315;SDS011;61545;53.726;-0.444;2023-11-21T04:51:36;1.0;;;0.3;;
73315;SDS011;61545;53.726;-0.444;2023-11-21T04:56:37;0.7;;;0.3;;
73315;SDS011;61545;53.726;-0.444;2023-11-21T05:01:36;0.7;;;0.3;;
73315;SDS011;61545;53.726;-0.444;2023-11-21T05:06:36;1.8;;;0.6;;
73315;SDS011;61545;53.726;-0.444;2023-11-21T05:11:36;1.0;;;0.2;;
73315;SDS011;61545;53.726;-0.444;2023-11-21T05:16:37;1.9;;;0.2;;
73315;SDS011;61545;53.726;-0.444;2023-11-21T05:21:36;1.3;;;0.3;;
73315;SDS011;61545;53.726;-0.444;2023-11-21T05:26:36;0.4;;;0.2;;
73315;SDS011;61545;53.726;-0.444;2023-11-21T05:31:36;0.4;;;0.2;;
73315;SDS011;61545;53.726;-0.444;2023-11-21T05:36:36;2.0;;;0.3;;
73315;SDS011;61545;53.726;-0.444;2023-11-21T05:41:36;0.5;;;0.2;;
73315;SDS011;61545;53.726;-0.444;2023-11-21T05:46:36;2.4;;;0.3;;
73315;SDS011;61545;53.726;-0.444;2023-11-21T05:51:37;1.5;;;0.6;;
73315;SDS011;61545;53.726;-0.444;2023-11-21T05:56:37;2.5;;;0.6;;
73315;SDS011;61545;53.726;-0.444;2023-11-21T06:01:36;2.5;;;0.6;;
73315;SDS011;61545;53.726;-0.444;2023-11-21T06:06:36;1.5;;;0.4;;
73315;SDS011;61545;53.726;-0.444;2023-11-21T06:11:36;1.1;;;0.4;;
73315;SDS011;61545;53.726;-0.444;2023-11-21T06:16:37;3.4;;;0.6;;
73315;SDS011;61545;53.726;-0.444;2023-11-21T06:21:36;2.0;;;0.7;;
73315;SDS011;61545;53.726;-0.444;2023-11-21T06:26:36;3.0;;;0.6;;
73315;SDS011;61545;53.726;-0.444;2023-11-21T06:31:36;3.0;;;0.6;;
73315;SDS011;61545;53.726;-0.444;2023-11-21T06:36:37;4.9;;;0.7;;
73315;SDS011;61545;53.726;-0.444;2023-11-21T06:41:36;4.9;;;0.9;;
73315;SDS011;61545;53.726;-0.444;2023-11-21T06:46:36;6.1;;;1.2;;
73315;SDS011;61545;53.726;-0.444;2023-11-21T06:51:36;2.5;;;0.9;;
73315;SDS011;61545;53.726;-0.444;2023-11-21T06:56:37;6.5;;;1.1;;
73315;SDS011;61545;53.726;-0.444;2023-11-21T07:01:36;6.5;;;1.1;;
73315;SDS011;61545;53.726;-0.444;2023-11-21T07:06:36;4.4;;;1;;
73315;SDS011;61545;53.726;-0.444;2023-11-21T07:11:37;6.2;;;1.1;;
73315;SDS011;61545;53.726;-0.444;2023-11-21T07:16:37;6.5;;;1.2;;
73315;SDS011;61545;53.726;-0.444;2023-11-21T07:21:36;8.3;;;1.5;;
73315;SDS011;61545;53.726;-0.444;2023-11-21T07:26:37;10.1;;;1.9;;
73315;SDS011;61545;53.726;-0.444;2023-11-21T07:31:37;10.1;;;1.9;;
73315;SDS011;61545;53.726;-0.444;2023-11-21T07:36:37;9.2;;;1.9;;
73315;SDS011;61545;53.726;-0.444;2023-11-21T07:41:36;13.8;;;1.5;;
73315;SDS011;61545;53.726;-0.444;2023-11-21T07:46:36;7.4;;;1.4;;
73315;SDS011;61545;53.726;-0.444;2023-11-21T07:51:36;8.1;;;1.8;;
73315;SDS011;61545;53.726;-0.444;2023-11-21T07:56:37;15.3;;;3;;
73315;SDS011;61545;53.726;-0.444;2023-11-21T08:01:36;15.3;;;3;;
73315;SDS011;61545;53.726;-0.444;2023-11-21T08:06:36;12.0;;;2.6;;
73315;SDS011;61545;53.726;-0.444;2023-11-21T08:11:36;9.3;;;1.9;;
73315;SDS011;61545;53.726;-0.444;2023-11-21T08:16:36;8.0;;;1.7;;
73315;SDS011;61545;53.726;-0.444;2023-11-21T08:21:37;7.5;;;1.7;;
73315;SDS011;61545;53.726;-0.444;2023-11-21T08:26:36;13.5;;;2.1;;
73315;SDS011;61545;53.726;-0.444;2023-11-21T08:31:36;13.5;;;2.1;;
73315;SDS011;61545;53.726;-0.444;2023-11-21T08:36:41;9.4;;;1.4;;
73315;SDS011;61545;53.726;-0.444;2023-11-21T08:41:36;7.3;;;1.9;;
73315;SDS011;61545;53.726;-0.444;2023-11-21T08:46:36;11.6;;;1.8;;
73315;SDS011;61545;53.726;-0.444;2023-11-21T08:51:37;15.4;;;2.7;;
73315;SDS011;61545;53.726;-0.444;2023-11-21T08:56:37;13.8;;;2.5;;
73315;SDS011;61545;53.726;-0.444;2023-11-21T09:01:36;13.8;;;2.5;;
73315;SDS011;61545;53.726;-0.444;2023-11-21T09:06:36;12.2;;;2.1;;
73315;SDS011;61545;53.726;-0.444;2023-11-21T09:11:36;8.6;;;1.9;;
73315;SDS011;61545;53.726;-0.444;2023-11-21T09:16:37;5.0;;;1.1;;
73315;SDS011;61545;53.726;-0.444;2023-11-21T09:21:36;6.2;;;1.4;;
73315;SDS011;61545;53.726;-0.444;2023-11-21T09:26:36;7.3;;;1.5;;
73315;SDS011;61545;53.726;-0.444;2023-11-21T09:31:37;7.3;;;1.5;;
73315;SDS011;61545;53.726;-0.444;2023-11-21T09:36:37;6.8;;;1.4;;
73315;SDS011;61545;53.726;-0.444;2023-11-21T09:41:40;4.1;;;1;;
73315;SDS011;61545;53.726;-0.444;2023-11-21T09:46:37;5.9;;;1.2;;
73315;SDS011;61545;53.726;-0.444;2023-11-21T09:51:36;8.4;;;1.5;;
73315;SDS011;61545;53.726;-0.444;2023-11-21T09:56:37;5.3;;;1.6;;
73315;SDS011;61545;53.726;-0.444;2023-11-21T10:01:37;5.3;;;1.6;;
73315;SDS011;61545;53.726;-0.444;2023-11-21T10:06:38;5.0;;;1.2;;
73315;SDS011;61545;53.726;-0.444;2023-11-21T10:11:40;5.2;;;1.1;;
73315;SDS011;61545;53.726;-0.444;2023-11-21T10:16:37;8.6;;;1.4;;
73315;SDS011;61545;53.726;-0.444;2023-11-21T10:21:37;3.5;;;1.2;;
73315;SDS011;61545;53.726;-0.444;2023-11-21T10:26:37;1.9;;;0.9;;
73315;SDS011;61545;53.726;-0.444;2023-11-21T10:31:37;1.9;;;0.9;;
73315;SDS011;61545;53.726;-0.444;2023-11-21T10:36:37;4.1;;;0.9;;
73315;SDS011;61545;53.726;-0.444;2023-11-21T10:41:37;8.8;;;1.6;;
73315;SDS011;61545;53.726;-0.444;2023-11-21T10:46:37;6.6;;;1.8;;
73315;SDS011;61545;53.726;-0.444;2023-11-21T10:51:37;5.0;;;1.6;;
73315;SDS011;61545;53.726;-0.444;2023-11-21T10:56:36;11.0;;;2.1;;
73315;SDS011;61545;53.726;-0.444;2023-11-21T11:01:37;11.0;;;2.1;;
73315;SDS011;61545;53.726;-0.444;2023-11-21T11:06:36;12.3;;;1.9;;
73315;SDS011;61545;53.726;-0.444;2023-11-21T11:11:37;12.3;;;2.3;;
73315;SDS011;61545;53.726;-0.444;2023-11-21T11:16:37;9.9;;;2.1;;
73315;SDS011;61545;53.726;-0.444;2023-11-21T11:21:43;4.3;;;1.2;;
73315;SDS011;61545;53.726;-0.444;2023-11-21T11:26:42;4.3;;;1.5;;
73315;SDS011;61545;53.726;-0.444;2023-11-21T11:31:40;4.3;;;1.5;;
73315;SDS011;61545;53.726;-0.444;2023-11-21T11:36:40;8.8;;;1.9;;
73315;SDS011;61545;53.726;-0.444;2023-11-21T11:41:37;10.2;;;2.1;;
73315;SDS011;61545;53.726;-0.444;2023-11-21T11:46:40;7.5;;;1.6;;
73315;SDS011;61545;53.726;-0.444;2023-11-21T11:51:37;7.0;;;1.6;;
73315;SDS011;61545;53.726;-0.444;2023-11-21T11:56:37;9.7;;;1.5;;
73315;SDS011;61545;53.726;-0.444;2023-11-21T12:01:37;9.7;;;1.5;;
73315;SDS011;61545;53.726;-0.444;2023-11-21T12:06:37;15.2;;;2.1;;
73315;SDS011;61545;53.726;-0.444;2023-11-21T12:11:37;6.4;;;1.7;;
73315;SDS011;61545;53.726;-0.444;2023-11-21T12:16:37;5.6;;;1.9;;
73315;SDS011;61545;53.726;-0.444;2023-11-21T12:21:37;7.8;;;1.5;;
73315;SDS011;61545;53.726;-0.444;2023-11-21T12:26:37;8.4;;;1.8;;
73315;SDS011;61545;53.726;-0.444;2023-11-21T12:31:37;8.4;;;1.8;;
73315;SDS011;61545;53.726;-0.444;2023-11-21T12:36:37;8.0;;;1.5;;
73315;SDS011;61545;53.726;-0.444;2023-11-21T12:41:36;6.7;;;1.3;;
73315;SDS011;61545;53.726;-0.444;2023-11-21T12:46:41;9.9;;;1.4;;
73315;SDS011;61545;53.726;-0.444;2023-11-21T12:51:37;9.9;;;1.7;;
73315;SDS011;61545;53.726;-0.444;2023-11-21T12:56:38;9.9;;;1.7;;
73315;SDS011;61545;53.726;-0.444;2023-11-21T13:01:37;6.2;;;1.9;;
73315;SDS011;61545;53.726;-0.444;2023-11-21T13:06:37;7.6;;;1.4;;
73315;SDS011;61545;53.726;-0.444;2023-11-21T13:11:37;6.8;;;1.6;;
73315;SDS011;61545;53.726;-0.444;2023-11-21T13:16:37;7.2;;;1.4;;
73315;SDS011;61545;53.726;-0.444;2023-11-21T13:21:37;3.7;;;1.1;;
73315;SDS011;61545;53.726;-0.444;2023-11-21T13:26:37;3.7;;;1.1;;
73315;SDS011;61545;53.726;-0.444;2023-11-21T13:31:37;6.3;;;1.7;;
73315;SDS011;61545;53.726;-0.444;2023-11-21T13:36:37;3.9;;;1.3;;
73315;SDS011;61545;53.726;-0.444;2023-11-21T13:41:37;10.2;;;1.7;;
73315;SDS011;61545;53.726;-0.444;2023-11-21T13:46:37;7.2;;;1.1;;
73315;SDS011;61545;53.726;-0.444;2023-11-21T13:51:37;7.4;;;1.6;;
73315;SDS011;61545;53.726;-0.444;2023-11-21T13:56:37;7.4;;;1.6;;
73315;SDS011;61545;53.726;-0.444;2023-11-21T14:01:37;5.6;;;1.3;;
73315;SDS011;61545;53.726;-0.444;2023-11-21T14:06:37;3.5;;;1.1;;
73315;SDS011;61545;53.726;-0.444;2023-11-21T14:11:37;7.3;;;1.7;;
73315;SDS011;61545;53.726;-0.444;2023-11-21T14:16:37;5.2;;;1.1;;
73315;SDS011;61545;53.726;-0.444;2023-11-21T14:21:37;6.9;;;1.6;;
73315;SDS011;61545;53.726;-0.444;2023-11-21T14:26:37;6.9;;;1.6;;
73315;SDS011;61545;53.726;-0.444;2023-11-21T14:31:37;10.2;;;1.7;;
73315;SDS011;61545;53.726;-0.444;2023-11-21T14:36:37;4.1;;;1.4;;
73315;SDS011;61545;53.726;-0.444;2023-11-21T14:41:37;4.7;;;1.2;;
73315;SDS011;61545;53.726;-0.444;2023-11-21T14:46:37;2.7;;;1;;
73315;SDS011;61545;53.726;-0.444;2023-11-21T14:51:37;3.9;;;1;;
73315;SDS011;61545;53.726;-0.444;2023-11-21T14:56:37;3.9;;;1;;
73315;SDS011;61545;53.726;-0.444;2023-11-21T15:01:37;7.3;;;1.4;;
73315;SDS011;61545;53.726;-0.444;2023-11-21T15:06:37;8.0;;;1.5;;
73315;SDS011;61545;53.726;-0.444;2023-11-21T15:11:37;6.2;;;1.1;;
73315;SDS011;61545;53.726;-0.444;2023-11-21T15:16:37;6.6;;;1.2;;
73315;SDS011;61545;53.726;-0.444;2023-11-21T15:21:37;9.0;;;1.3;;
73315;SDS011;61545;53.726;-0.444;2023-11-21T15:26:36;9.0;;;1.3;;
73315;SDS011;61545;53.726;-0.444;2023-11-21T15:31:37;5.5;;;1;;
73315;SDS011;61545;53.726;-0.444;2023-11-21T15:36:37;4.3;;;1.1;;
73315;SDS011;61545;53.726;-0.444;2023-11-21T15:41:38;5.9;;;1.2;;
73315;SDS011;61545;53.726;-0.444;2023-11-21T15:46:37;8.3;;;1.6;;
73315;SDS011;61545;53.726;-0.444;2023-11-21T15:51:37;10.4;;;3.2;;
73315;SDS011;61545;53.726;-0.444;2023-11-21T15:56:38;10.4;;;3.2;;
73315;SDS011;61545;53.726;-0.444;2023-11-21T16:01:37;9.7;;;2.6;;
73315;SDS011;61545;53.726;-0.444;2023-11-21T16:06:37;5.0;;;1.7;;
73315;SDS011;61545;53.726;-0.444;2023-11-21T16:11:37;9.0;;;1.5;;
73315;SDS011;61545;53.726;-0.444;2023-11-21T16:16:37;9.2;;;1.8;;
73315;SDS011;61545;53.726;-0.444;2023-11-21T16:21:36;5.3;;;1.6;;
73315;SDS011;61545;53.726;-0.444;2023-11-21T16:26:37;5.3;;;1.6;;
73315;SDS011;61545;53.726;-0.444;2023-11-21T16:31:37;6.8;;;1.9;;
73315;SDS011;61545;53.726;-0.444;2023-11-21T16:36:37;11.2;;;2.9;;
73315;SDS011;61545;53.726;-0.444;2023-11-21T16:41:37;3.8;;;1.5;;
73315;SDS011;61545;53.726;-0.444;2023-11-21T16:46:37;6.6;;;1.8;;
73315;SDS011;61545;53.726;-0.444;2023-11-21T16:51:37;6.9;;;1.6;;
73315;SDS011;61545;53.726;-0.444;2023-11-21T16:56:37;6.9;;;1.6;;
73315;SDS011;61545;53.726;-0.444;2023-11-21T17:01:37;6.9;;;1.7;;
73315;SDS011;61545;53.726;-0.444;2023-11-21T17:06:39;6.4;;;1.6;;
73315;SDS011;61545;53.726;-0.444;2023-11-21T17:11:37;3.5;;;1;;
73315;SDS011;61545;53.726;-0.444;2023-11-21T17:16:37;6.2;;;1.1;;
73315;SDS011;61545;53.726;-0.444;2023-11-21T17:21:37;6.7;;;1.1;;
73315;SDS011;61545;53.726;-0.444;2023-11-21T17:26:37;6.7;;;1.1;;
73315;SDS011;61545;53.726;-0.444;2023-11-21T17:31:37;5.9;;;1.2;;
73315;SDS011;61545;53.726;-0.444;2023-11-21T17:36:37;5.9;;;1.6;;
73315;SDS011;61545;53.726;-0.444;2023-11-21T17:41:37;5.5;;;1.2;;
73315;SDS011;61545;53.726;-0.444;2023-11-21T17:46:37;5.0;;;1.1;;
73315;SDS011;61545;53.726;-0.444;2023-11-21T17:51:37;6.0;;;1.7;;
73315;SDS011;61545;53.726;-0.444;2023-11-21T17:56:37;6.0;;;1.7;;
73315;SDS011;61545;53.726;-0.444;2023-11-21T18:01:37;5.3;;;1.7;;
73315;SDS011;61545;53.726;-0.444;2023-11-21T18:06:37;7.7;;;1.9;;
73315;SDS011;61545;53.726;-0.444;2023-11-21T18:11:37;9.4;;;1.5;;
73315;SDS011;61545;53.726;-0.444;2023-11-21T18:16:37;7.5;;;1.8;;
73315;SDS011;61545;53.726;-0.444;2023-11-21T18:21:38;6.9;;;1.7;;
73315;SDS011;61545;53.726;-0.444;2023-11-21T18:26:37;6.9;;;1.7;;
73315;SDS011;61545;53.726;-0.444;2023-11-21T18:31:39;6.5;;;1.8;;
73315;SDS011;61545;53.726;-0.444;2023-11-21T18:36:37;8.9;;;2;;
73315;SDS011;61545;53.726;-0.444;2023-11-21T18:41:37;9.3;;;1.8;;
73315;SDS011;61545;53.726;-0.444;2023-11-21T18:46:37;5.8;;;1.6;;
73315;SDS011;61545;53.726;-0.444;2023-11-21T18:51:37;8.6;;;1.3;;
73315;SDS011;61545;53.726;-0.444;2023-11-21T18:56:37;8.6;;;1.3;;
73315;SDS011;61545;53.726;-0.444;2023-11-21T19:01:37;5.2;;;1.4;;
73315;SDS011;61545;53.726;-0.444;2023-11-21T19:06:37;5.3;;;1.3;;
73315;SDS011;61545;53.726;-0.444;2023-11-21T19:11:37;6.7;;;2;;
73315;SDS011;61545;53.726;-0.444;2023-11-21T19:16:37;7.1;;;2.3;;
73315;SDS011;61545;53.726;-0.444;2023-11-21T19:21:37;9.0;;;2.5;;
73315;SDS011;61545;53.726;-0.444;2023-11-21T19:26:37;9.0;;;2.5;;
73315;SDS011;61545;53.726;-0.444;2023-11-21T19:31:37;6.9;;;1.8;;
73315;SDS011;61545;53.726;-0.444;2023-11-21T19:36:39;5.7;;;1.4;;
73315;SDS011;61545;53.726;-0.444;2023-11-21T19:41:37;7.1;;;1.3;;
73315;SDS011;61545;53.726;-0.444;2023-11-21T19:46:37;7.2;;;1.3;;
73315;SDS011;61545;53.726;-0.444;2023-11-21T19:51:37;7.8;;;1.4;;
73315;SDS011;61545;53.726;-0.444;2023-11-21T19:56:37;7.8;;;1.4;;
73315;SDS011;61545;53.726;-0.444;2023-11-21T20:01:37;5.8;;;1.9;;
73315;SDS011;61545;53.726;-0.444;2023-11-21T20:06:38;8.3;;;1.7;;
73315;SDS011;61545;53.726;-0.444;2023-11-21T20:11:37;11.3;;;2;;
73315;SDS011;61545;53.726;-0.444;2023-11-21T20:16:38;7.0;;;2.2;;
73315;SDS011;61545;53.726;-0.444;2023-11-21T20:21:37;7.3;;;2.3;;
73315;SDS011;61545;53.726;-0.444;2023-11-21T20:26:37;7.3;;;2.3;;
73315;SDS011;61545;53.726;-0.444;2023-11-21T20:31:37;5.6;;;2.3;;
73315;SDS011;61545;53.726;-0.444;2023-11-21T20:36:37;7.7;;;2.6;;
73315;SDS011;61545;53.726;-0.444;2023-11-21T20:41:39;8.4;;;3.4;;
73315;SDS011;61545;53.726;-0.444;2023-11-21T20:46:38;10.1;;;3.6;;
73315;SDS011;61545;53.726;-0.444;2023-11-21T20:51:37;14.1;;;5;;
73315;SDS011;61545;53.726;-0.444;2023-11-21T20:56:37;14.1;;;5;;
73315;SDS011;61545;53.726;-0.444;2023-11-21T21:01:37;12.6;;;5.1;;
73315;SDS011;61545;53.726;-0.444;2023-11-21T21:06:37;10.7;;;2.9;;
73315;SDS011;61545;53.726;-0.444;2023-11-21T21:11:37;6.3;;;2;;
73315;SDS011;61545;53.726;-0.444;2023-11-21T21:16:39;10.2;;;2.4;;
73315;SDS011;61545;53.726;-0.444;2023-11-21T21:21:37;7.5;;;2;;
73315;SDS011;61545;53.726;-0.444;2023-11-21T21:26:37;7.5;;;2;;
73315;SDS011;61545;53.726;-0.444;2023-11-21T21:31:37;7.1;;;2.5;;
73315;SDS011;61545;53.726;-0.444;2023-11-21T21:36:37;10.5;;;3.1;;
73315;SDS011;61545;53.726;-0.444;2023-11-21T21:41:37;9.4;;;3.1;;
73315;SDS011;61545;53.726;-0.444;2023-11-21T21:46:37;11.7;;;4;;
73315;SDS011;61545;53.726;-0.444;2023-11-21T21:51:37;13.5;;;4.7;;
73315;SDS011;61545;53.726;-0.444;2023-11-21T21:56:37;13.5;;;4.7;;
73315;SDS011;61545;53.726;-0.444;2023-11-21T22:01:42;9.5;;;3.6;;
73315;SDS011;61545;53.726;-0.444;2023-11-21T22:06:37;14.4;;;4.7;;
73315;SDS011;61545;53.726;-0.444;2023-11-21T22:11:37;12.0;;;4.3;;
73315;SDS011;61545;53.726;-0.444;2023-11-21T22:16:37;15.4;;;4.3;;
73315;SDS011;61545;53.726;-0.444;2023-11-21T22:21:37;12.5;;;4;;
73315;SDS011;61545;53.726;-0.444;2023-11-21T22:26:37;12.5;;;4;;
73315;SDS011;61545;53.726;-0.444;2023-11-21T22:31:40;11.7;;;4.1;;
73315;SDS011;61545;53.726;-0.444;2023-11-21T22:36:37;12.9;;;4.3;;
73315;SDS011;61545;53.726;-0.444;2023-11-21T22:41:37;17.8;;;4.5;;
73315;SDS011;61545;53.726;-0.444;2023-11-21T22:46:40;13.4;;;4.9;;
73315;SDS011;61545;53.726;-0.444;2023-11-21T22:51:37;9.1;;;4;;
73315;SDS011;61545;53.726;-0.444;2023-11-21T22:56:37;9.1;;;4;;
73315;SDS011;61545;53.726;-0.444;2023-11-21T23:01:37;14.4;;;5.6;;
73315;SDS011;61545;53.726;-0.444;2023-11-21T23:06:37;11.6;;;4.8;;
73315;SDS011;61545;53.726;-0.444;2023-11-21T23:11:37;12.7;;;5.2;;
73315;SDS011;61545;53.726;-0.444;2023-11-21T23:16:37;11.7;;;4.8;;
73315;SDS011;61545;53.726;-0.444;2023-11-21T23:21:37;10.2;;;4.5;;
73315;SDS011;61545;53.726;-0.444;2023-11-21T23:26:37;10.2;;;4.5;;
73315;SDS011;61545;53.726;-0.444;2023-11-21T23:31:37;11.6;;;4.6;;
73315;SDS011;61545;53.726;-0.444;2023-11-21T23:36:37;11.2;;;4;;
73315;SDS011;61545;53.726;-0.444;2023-11-21T23:41:37;12.9;;;4.4;;
73315;SDS011;61545;53.726;-0.444;2023-11-21T23:46:37;12.4;;;4.1;;
73315;SDS011;61545;53.726;-0.444;2023-11-21T23:51:37;14.2;;;4.1;;
73315;SDS011;61545;53.726;-0.444;2023-11-21T23:56:37;14.2;;;4.1;;
